createdAt,value
2018-07-07T00:00:56.249Z,0.00
2018-07-07T00:01:56.278Z,0.00
2018-07-07T00:02:56.289Z,0.00
2018-07-07T00:03:56.298Z,0.00
2018-07-07T00:04:56.320Z,0.00
2018-07-07T00:05:56.352Z,0.00
2018-07-07T00:06:56.354Z,0.00
2018-07-07T00:07:56.373Z,0.00
2018-07-07T00:08:56.394Z,0.00
2018-07-07T00:09:56.415Z,0.00
2018-07-07T00:10:56.434Z,0.00
2018-07-07T00:11:56.479Z,0.00
2018-07-07T00:12:56.474Z,0.00
2018-07-07T00:13:56.487Z,0.00
2018-07-07T00:14:56.529Z,0.00
2018-07-07T00:15:56.531Z,0.00
2018-07-07T00:16:56.553Z,0.00
2018-07-07T00:17:56.562Z,0.00
2018-07-07T00:18:56.584Z,0.00
2018-07-07T00:19:56.606Z,0.00
2018-07-07T00:20:56.619Z,0.00
2018-07-07T00:21:56.642Z,0.00
2018-07-07T00:22:56.659Z,0.00
2018-07-07T00:23:56.684Z,0.00
2018-07-07T00:24:56.696Z,0.00
2018-07-07T00:25:56.731Z,0.00
2018-07-07T00:26:56.732Z,0.00
2018-07-07T00:27:56.754Z,0.00
2018-07-07T00:28:56.778Z,0.00
2018-07-07T00:29:56.788Z,0.00
2018-07-07T00:30:56.808Z,0.00
2018-07-07T00:31:56.831Z,0.00
2018-07-07T00:32:56.849Z,0.00
2018-07-07T00:33:56.870Z,0.00
2018-07-07T00:34:56.883Z,0.00
2018-07-07T00:35:56.904Z,0.00
2018-07-07T00:36:56.926Z,0.00
2018-07-07T00:37:56.941Z,0.00
2018-07-07T00:38:56.959Z,0.00
2018-07-07T00:39:56.977Z,0.00
2018-07-07T00:40:56.994Z,0.00
2018-07-07T00:41:57.020Z,0.00
2018-07-07T00:42:57.034Z,0.00
2018-07-07T00:43:57.056Z,0.00
2018-07-07T00:44:57.081Z,0.00
2018-07-07T00:45:57.096Z,0.00
2018-07-07T00:46:57.113Z,0.00
2018-07-07T00:47:57.126Z,0.00
2018-07-07T00:48:57.154Z,0.00
2018-07-07T00:49:57.166Z,0.00
2018-07-07T00:50:57.183Z,0.00
2018-07-07T00:51:57.199Z,0.00
2018-07-07T00:52:57.223Z,0.00
2018-07-07T00:53:57.239Z,0.00
2018-07-07T00:54:57.261Z,0.00
2018-07-07T00:55:57.274Z,0.00
2018-07-07T00:56:57.293Z,0.00
2018-07-07T00:57:57.318Z,0.00
2018-07-07T00:58:57.331Z,0.00
2018-07-07T00:59:57.349Z,0.00
2018-07-07T01:00:57.373Z,0.00
2018-07-07T01:01:57.395Z,0.00
2018-07-07T01:02:57.409Z,0.00
2018-07-07T01:03:57.424Z,0.00
2018-07-07T01:04:57.441Z,0.00
2018-07-07T01:05:57.460Z,0.00
2018-07-07T01:06:57.483Z,0.00
2018-07-07T01:07:57.507Z,0.00
2018-07-07T01:08:57.518Z,0.00
2018-07-07T01:09:57.537Z,0.00
2018-07-07T01:10:57.555Z,0.00
2018-07-07T01:11:57.575Z,0.00
2018-07-07T01:12:57.590Z,0.00
2018-07-07T01:13:57.607Z,0.00
2018-07-07T01:14:57.632Z,0.00
2018-07-07T01:15:57.644Z,0.00
2018-07-07T01:16:57.662Z,0.00
2018-07-07T01:17:57.693Z,0.00
2018-07-07T01:18:57.707Z,0.00
2018-07-07T01:19:57.721Z,0.00
2018-07-07T01:20:57.746Z,0.00
2018-07-07T01:21:57.758Z,0.00
2018-07-07T01:22:57.781Z,0.00
2018-07-07T01:23:57.790Z,0.00
2018-07-07T01:24:57.818Z,0.00
2018-07-07T01:25:57.827Z,0.00
2018-07-07T01:26:57.864Z,0.00
2018-07-07T01:27:57.864Z,0.00
2018-07-07T01:28:57.884Z,0.00
2018-07-07T01:29:57.905Z,0.00
2018-07-07T01:30:57.923Z,0.00
2018-07-07T01:31:57.949Z,0.00
2018-07-07T01:32:57.963Z,0.00
2018-07-07T01:33:57.978Z,0.00
2018-07-07T01:34:58.001Z,0.00
2018-07-07T01:35:58.018Z,0.00
2018-07-07T01:36:58.039Z,0.00
2018-07-07T01:37:58.053Z,0.00
2018-07-07T01:38:58.073Z,0.00
2018-07-07T01:39:58.090Z,0.00
2018-07-07T01:40:58.117Z,0.00
2018-07-07T01:41:58.133Z,0.00
2018-07-07T01:42:58.149Z,0.00
2018-07-07T01:43:58.168Z,0.00
2018-07-07T01:44:58.190Z,0.00
2018-07-07T01:45:58.215Z,0.00
2018-07-07T01:46:58.217Z,0.00
2018-07-07T01:47:58.235Z,0.00
2018-07-07T01:48:58.250Z,0.00
2018-07-07T01:49:58.272Z,0.00
2018-07-07T01:50:58.287Z,0.00
2018-07-07T01:51:58.304Z,0.00
2018-07-07T01:52:58.331Z,0.00
2018-07-07T01:53:58.347Z,0.00
2018-07-07T01:54:58.361Z,0.00
2018-07-07T01:55:58.390Z,0.00
2018-07-07T01:56:58.397Z,0.00
2018-07-07T01:57:58.433Z,0.00
2018-07-07T01:58:58.436Z,0.00
2018-07-07T01:59:58.453Z,0.00
2018-07-07T02:00:58.469Z,0.00
2018-07-07T02:01:58.488Z,0.00
2018-07-07T02:02:58.511Z,0.00
2018-07-07T02:03:58.525Z,0.00
2018-07-07T02:04:58.544Z,0.00
2018-07-07T02:05:58.564Z,0.00
2018-07-07T02:06:58.596Z,0.00
2018-07-07T02:07:58.596Z,0.00
2018-07-07T02:08:58.619Z,4.00
2018-07-07T02:09:58.636Z,4.00
2018-07-07T02:10:58.661Z,4.00
2018-07-07T02:11:58.668Z,4.00
2018-07-07T02:12:58.694Z,4.00
2018-07-07T02:13:58.708Z,4.00
2018-07-07T02:14:58.728Z,4.00
2018-07-07T02:15:58.770Z,4.00
2018-07-07T02:16:58.765Z,0.00
2018-07-07T02:17:58.783Z,0.00
2018-07-07T02:18:58.793Z,0.00
2018-07-07T02:19:58.817Z,4.00
2018-07-07T02:20:58.841Z,4.00
2018-07-07T02:21:58.856Z,4.00
2018-07-07T02:22:58.874Z,4.00
2018-07-07T02:23:58.890Z,4.00
2018-07-07T02:24:58.909Z,4.00
2018-07-07T02:25:58.924Z,4.00
2018-07-07T02:26:58.945Z,4.00
2018-07-07T02:27:58.962Z,8.00
2018-07-07T02:28:58.983Z,8.00
2018-07-07T02:29:58.995Z,8.00
2018-07-07T02:30:59.021Z,8.00
2018-07-07T02:31:59.031Z,12.00
2018-07-07T02:32:59.060Z,8.00
2018-07-07T02:33:59.074Z,12.00
2018-07-07T02:34:59.088Z,12.00
2018-07-07T02:35:59.107Z,12.00
2018-07-07T02:36:59.132Z,12.00
2018-07-07T02:37:59.146Z,16.00
2018-07-07T02:38:59.157Z,16.00
2018-07-07T02:39:59.177Z,20.00
2018-07-07T02:40:59.193Z,24.00
2018-07-07T02:41:59.216Z,28.00
2018-07-07T02:42:59.241Z,28.00
2018-07-07T02:43:59.249Z,32.00
2018-07-07T02:44:59.271Z,36.00
2018-07-07T02:45:59.290Z,40.00
2018-07-07T02:46:59.300Z,44.00
2018-07-07T02:47:59.321Z,48.00
2018-07-07T02:48:59.335Z,56.00
2018-07-07T02:49:59.359Z,64.00
2018-07-07T02:50:59.380Z,72.00
2018-07-07T02:51:59.390Z,80.00
2018-07-07T02:52:59.408Z,88.00
2018-07-07T02:53:59.429Z,100.00
2018-07-07T02:54:59.453Z,108.00
2018-07-07T02:55:59.469Z,116.00
2018-07-07T02:56:59.478Z,128.00
2018-07-07T02:57:59.504Z,144.00
2018-07-07T02:58:59.516Z,156.00
2018-07-07T02:59:59.549Z,172.00
2018-07-07T03:00:59.554Z,188.00
2018-07-07T03:01:59.575Z,212.00
2018-07-07T03:02:59.607Z,232.00
2018-07-07T03:03:59.609Z,260.00
2018-07-07T03:04:59.627Z,284.00
2018-07-07T03:05:59.642Z,308.00
2018-07-07T03:06:59.679Z,328.00
2018-07-07T03:07:59.682Z,356.00
2018-07-07T03:08:59.701Z,380.00
2018-07-07T03:09:59.725Z,404.00
2018-07-07T03:10:59.730Z,432.00
2018-07-07T03:11:59.761Z,452.00
2018-07-07T03:12:59.780Z,480.00
2018-07-07T03:13:59.795Z,508.00
2018-07-07T03:14:59.863Z,536.00
2018-07-07T03:15:59.824Z,568.00
2018-07-07T03:16:59.837Z,604.00
2018-07-07T03:17:59.861Z,636.00
2018-07-07T03:18:59.875Z,672.00
2018-07-07T03:19:59.897Z,712.00
2018-07-07T03:20:59.912Z,756.00
2018-07-07T03:21:59.936Z,808.00
2018-07-07T03:22:59.949Z,860.00
2018-07-07T03:23:59.978Z,916.00
2018-07-07T03:24:59.990Z,976.00
2018-07-07T03:26:00.001Z,1036.00
2018-07-07T03:27:00.117Z,1092.00
2018-07-07T03:28:00.053Z,1156.00
2018-07-07T03:29:00.056Z,1224.00
2018-07-07T03:30:00.080Z,1292.00
2018-07-07T03:31:00.115Z,1348.00
2018-07-07T03:32:00.120Z,1404.00
2018-07-07T03:33:00.151Z,1448.00
2018-07-07T03:34:00.172Z,1492.00
2018-07-07T03:35:00.199Z,1544.00
2018-07-07T03:36:00.178Z,1604.00
2018-07-07T03:37:00.195Z,1656.00
2018-07-07T03:38:00.253Z,1716.00
2018-07-07T03:39:00.232Z,1776.00
2018-07-07T03:40:00.257Z,1840.00
2018-07-07T03:41:00.309Z,1900.00
2018-07-07T03:42:00.284Z,1960.00
2018-07-07T03:43:00.318Z,2016.00
2018-07-07T03:44:00.338Z,2076.00
2018-07-07T03:45:00.338Z,2136.00
2018-07-07T03:46:00.358Z,2204.00
2018-07-07T03:47:00.380Z,2272.00
2018-07-07T03:48:00.392Z,2344.00
2018-07-07T03:49:00.410Z,2416.00
2018-07-07T03:50:00.427Z,2480.00
2018-07-07T03:51:00.449Z,2540.00
2018-07-07T03:52:00.461Z,2604.00
2018-07-07T03:53:00.487Z,2672.00
2018-07-07T03:54:00.500Z,2744.00
2018-07-07T03:55:00.522Z,2820.00
2018-07-07T03:56:00.534Z,2892.00
2018-07-07T03:57:00.564Z,2968.00
2018-07-07T03:58:00.573Z,3052.00
2018-07-07T03:59:00.611Z,3144.00
2018-07-07T04:00:00.608Z,3248.00
2018-07-07T04:01:00.633Z,3364.00
2018-07-07T04:02:00.646Z,3512.00
2018-07-07T04:03:00.666Z,3636.00
2018-07-07T04:04:00.679Z,3756.00
2018-07-07T04:05:00.699Z,3928.00
2018-07-07T04:06:00.716Z,4108.00
2018-07-07T04:07:00.734Z,4268.00
2018-07-07T04:08:00.750Z,4420.00
2018-07-07T04:09:00.769Z,4552.00
2018-07-07T04:10:00.790Z,4676.00
2018-07-07T04:11:00.803Z,4784.00
2018-07-07T04:12:00.820Z,4876.00
2018-07-07T04:13:00.855Z,4960.00
2018-07-07T04:14:00.877Z,5040.00
2018-07-07T04:15:00.909Z,5116.00
2018-07-07T04:16:00.897Z,5184.00
2018-07-07T04:17:00.917Z,5256.00
2018-07-07T04:18:00.928Z,5328.00
2018-07-07T04:19:00.949Z,5396.00
2018-07-07T04:20:01.029Z,5460.00
2018-07-07T04:21:01.008Z,5532.00
2018-07-07T04:22:01.003Z,5608.00
2018-07-07T04:23:01.021Z,5680.00
2018-07-07T04:24:01.042Z,5752.00
2018-07-07T04:25:01.062Z,5812.00
2018-07-07T04:26:01.092Z,5856.00
2018-07-07T04:27:01.099Z,5892.00
2018-07-07T04:28:01.113Z,5956.00
2018-07-07T04:29:01.130Z,6032.00
2018-07-07T04:30:01.152Z,6116.00
2018-07-07T04:31:01.169Z,6208.00
2018-07-07T04:32:01.198Z,6324.00
2018-07-07T04:33:01.211Z,6436.00
2018-07-07T04:34:01.224Z,6544.00
2018-07-07T04:35:01.243Z,6664.00
2018-07-07T04:36:01.270Z,6784.00
2018-07-07T04:37:01.280Z,6912.00
2018-07-07T04:38:01.296Z,6992.00
2018-07-07T04:39:01.311Z,7112.00
2018-07-07T04:40:01.329Z,7228.00
2018-07-07T04:41:01.353Z,7328.00
2018-07-07T04:42:01.386Z,7392.00
2018-07-07T04:43:01.387Z,7556.00
2018-07-07T04:44:01.411Z,7732.00
2018-07-07T04:45:01.427Z,7896.00
2018-07-07T04:46:01.470Z,8072.00
2018-07-07T04:47:01.473Z,8256.00
2018-07-07T04:48:01.478Z,8440.00
2018-07-07T04:49:01.505Z,8608.00
2018-07-07T04:50:01.526Z,8824.00
2018-07-07T04:51:01.542Z,9056.00
2018-07-07T04:52:01.559Z,9300.00
2018-07-07T04:53:01.598Z,9616.00
2018-07-07T04:54:01.596Z,10056.00
2018-07-07T04:55:01.610Z,10604.00
2018-07-07T04:56:01.634Z,11252.00
2018-07-07T04:57:01.658Z,22464.00
2018-07-07T04:58:01.668Z,47296.00
2018-07-07T04:59:01.689Z,55296.00
2018-07-07T05:00:01.710Z,53248.00
2018-07-07T05:01:01.725Z,52896.00
2018-07-07T05:02:01.751Z,55648.00
2018-07-07T05:03:01.779Z,57248.00
2018-07-07T05:04:01.788Z,55520.00
2018-07-07T05:05:01.810Z,58144.00
2018-07-07T05:06:01.841Z,59520.00
2018-07-07T05:07:01.856Z,62688.00
2018-07-07T05:08:01.881Z,65280.00
2018-07-07T05:09:01.907Z,65696.00
2018-07-07T05:10:01.920Z,65568.00
2018-07-07T05:11:01.943Z,65952.00
2018-07-07T05:12:01.965Z,64736.00
2018-07-07T05:13:02.006Z,63552.00
2018-07-07T05:14:02.014Z,61952.00
2018-07-07T05:15:02.046Z,60000.00
2018-07-07T05:16:02.063Z,58880.00
2018-07-07T05:17:02.087Z,58240.00
2018-07-07T05:18:02.109Z,55072.00
2018-07-07T05:19:02.130Z,51552.00
2018-07-07T05:20:02.163Z,47584.00
2018-07-07T05:21:02.182Z,46528.00
2018-07-07T05:22:02.215Z,46400.00
2018-07-07T05:23:02.235Z,52544.00
2018-07-07T05:24:02.266Z,58912.00
2018-07-07T05:25:02.288Z,65504.00
2018-07-07T05:26:02.311Z,68448.00
2018-07-07T05:27:02.339Z,68672.00
2018-07-07T05:28:02.365Z,59904.00
2018-07-07T05:29:02.398Z,67296.00
2018-07-07T05:30:02.427Z,65440.00
2018-07-07T05:31:02.443Z,65184.00
2018-07-07T05:32:02.499Z,58560.00
2018-07-07T05:33:02.499Z,54464.00
2018-07-07T05:34:02.684Z,55168.00
2018-07-07T05:35:02.560Z,52320.00
2018-07-07T05:36:02.587Z,55392.00
2018-07-07T05:37:02.613Z,49920.00
2018-07-07T05:38:02.649Z,61760.00
2018-07-07T05:39:02.661Z,57568.00
2018-07-07T05:40:02.685Z,62048.00
2018-07-07T05:41:02.715Z,68288.00
2018-07-07T05:42:02.744Z,71584.00
2018-07-07T05:43:02.771Z,70688.00
2018-07-07T05:44:02.803Z,68608.00
2018-07-07T05:45:02.819Z,67552.00
2018-07-07T05:46:02.853Z,66336.00
2018-07-07T05:47:02.882Z,65600.00
2018-07-07T05:48:02.908Z,65664.00
2018-07-07T05:49:02.935Z,65760.00
2018-07-07T05:50:03.038Z,63072.00
2018-07-07T05:51:02.986Z,55808.00
2018-07-07T05:52:03.021Z,59040.00
2018-07-07T05:53:03.040Z,50880.00
2018-07-07T05:54:03.075Z,50016.00
2018-07-07T05:55:03.098Z,52960.00
2018-07-07T05:56:03.133Z,52576.00
2018-07-07T05:57:03.154Z,56256.00
2018-07-07T05:58:03.186Z,56320.00
2018-07-07T05:59:03.215Z,57184.00
2018-07-07T06:00:03.238Z,54464.00
2018-07-07T06:01:03.273Z,57472.00
2018-07-07T06:02:03.298Z,55648.00
2018-07-07T06:03:03.325Z,54112.00
2018-07-07T06:04:03.355Z,51840.00
2018-07-07T06:05:03.381Z,49056.00
2018-07-07T06:06:03.415Z,49408.00
2018-07-07T06:07:03.473Z,49216.00
2018-07-07T06:08:03.467Z,48992.00
2018-07-07T06:09:03.510Z,37952.00
2018-07-07T06:10:03.530Z,49024.00
2018-07-07T06:11:03.554Z,45888.00
2018-07-07T06:12:03.588Z,44064.00
2018-07-07T06:13:03.618Z,42336.00
2018-07-07T06:14:03.645Z,31840.00
2018-07-07T06:15:03.674Z,26112.00
2018-07-07T06:16:03.704Z,20608.00
2018-07-07T06:17:03.736Z,37888.00
2018-07-07T06:18:03.769Z,37664.00
2018-07-07T06:19:03.791Z,35072.00
2018-07-07T06:20:03.867Z,28448.00
2018-07-07T06:21:03.849Z,19424.00
2018-07-07T06:22:03.882Z,32000.00
2018-07-07T06:23:03.903Z,39840.00
2018-07-07T06:24:03.937Z,39936.00
2018-07-07T06:25:03.972Z,44160.00
2018-07-07T06:26:03.993Z,65536.00
2018-07-07T06:27:04.028Z,93088.00
2018-07-07T06:28:04.054Z,118752.00
2018-07-07T06:29:04.091Z,123904.00
2018-07-07T06:30:04.113Z,120192.00
2018-07-07T06:31:04.135Z,110016.00
2018-07-07T06:32:04.168Z,102752.00
2018-07-07T06:33:04.193Z,78560.00
2018-07-07T06:34:04.230Z,71872.00
2018-07-07T06:35:04.248Z,83808.00
2018-07-07T06:36:04.299Z,80128.00
2018-07-07T06:37:04.320Z,72224.00
2018-07-07T06:38:04.339Z,94048.00
2018-07-07T06:39:04.376Z,77248.00
2018-07-07T06:40:04.394Z,99808.00
2018-07-07T06:41:04.445Z,88224.00
2018-07-07T06:42:04.458Z,83968.00
2018-07-07T06:43:04.487Z,81472.00
2018-07-07T06:44:04.511Z,81120.00
2018-07-07T06:45:04.558Z,83168.00
2018-07-07T06:46:04.571Z,82784.00
2018-07-07T06:47:04.608Z,88864.00
2018-07-07T06:48:04.623Z,95936.00
2018-07-07T06:49:04.660Z,97312.00
2018-07-07T06:50:04.683Z,96096.00
2018-07-07T06:51:04.711Z,94720.00
2018-07-07T06:52:04.744Z,96608.00
2018-07-07T06:53:04.775Z,97248.00
2018-07-07T06:54:04.900Z,102784.00
2018-07-07T06:55:04.829Z,99168.00
2018-07-07T06:56:04.879Z,90688.00
2018-07-07T06:57:04.893Z,90720.00
2018-07-07T06:58:04.927Z,91488.00
2018-07-07T06:59:04.952Z,95200.00
2018-07-07T07:00:05.048Z,95712.00
2018-07-07T07:01:05.009Z,96160.00
2018-07-07T07:02:05.049Z,95360.00
2018-07-07T07:03:05.067Z,94144.00
2018-07-07T07:04:05.111Z,97312.00
2018-07-07T07:05:05.128Z,96192.00
2018-07-07T07:06:05.171Z,90880.00
2018-07-07T07:07:05.194Z,88736.00
2018-07-07T07:08:05.215Z,86400.00
2018-07-07T07:09:05.259Z,82080.00
2018-07-07T07:10:05.289Z,80480.00
2018-07-07T07:11:05.309Z,80512.00
2018-07-07T07:12:05.367Z,81664.00
2018-07-07T07:13:05.367Z,84960.00
2018-07-07T07:14:05.396Z,86848.00
2018-07-07T07:15:05.427Z,87456.00
2018-07-07T07:16:05.466Z,85664.00
2018-07-07T07:17:05.494Z,80896.00
2018-07-07T07:18:05.517Z,78592.00
2018-07-07T07:19:05.546Z,82048.00
2018-07-07T07:20:05.582Z,84896.00
2018-07-07T07:21:05.624Z,89216.00
2018-07-07T07:22:05.634Z,90880.00
2018-07-07T07:23:05.679Z,90656.00
2018-07-07T07:24:05.701Z,89248.00
2018-07-07T07:25:05.727Z,88288.00
2018-07-07T07:26:05.839Z,89344.00
2018-07-07T07:27:05.797Z,92224.00
2018-07-07T07:28:05.834Z,93248.00
2018-07-07T07:29:05.853Z,89216.00
2018-07-07T07:30:05.880Z,88704.00
2018-07-07T07:31:05.908Z,88640.00
2018-07-07T07:32:05.936Z,88032.00
2018-07-07T07:33:06.041Z,92128.00
2018-07-07T07:34:05.990Z,95104.00
2018-07-07T07:35:06.027Z,97952.00
2018-07-07T07:36:06.051Z,103712.00
2018-07-07T07:37:06.078Z,107744.00
2018-07-07T07:38:06.113Z,117280.00
2018-07-07T07:39:06.145Z,118880.00
2018-07-07T07:40:06.183Z,107168.00
2018-07-07T07:41:06.227Z,96480.00
2018-07-07T07:42:06.241Z,90272.00
2018-07-07T07:43:06.268Z,88608.00
2018-07-07T07:44:06.298Z,87744.00
2018-07-07T07:45:06.331Z,86624.00
2018-07-07T07:46:06.368Z,86048.00
2018-07-07T07:47:06.386Z,84352.00
2018-07-07T07:48:06.422Z,84672.00
2018-07-07T07:49:06.457Z,87456.00
2018-07-07T07:50:06.481Z,87520.00
2018-07-07T07:51:06.506Z,88224.00
2018-07-07T07:52:06.543Z,85728.00
2018-07-07T07:53:06.596Z,82944.00
2018-07-07T07:54:06.606Z,80544.00
2018-07-07T07:55:06.631Z,75616.00
2018-07-07T07:56:06.662Z,67872.00
2018-07-07T07:57:06.694Z,61696.00
2018-07-07T07:58:06.723Z,58880.00
2018-07-07T07:59:06.900Z,57920.00
2018-07-07T08:00:06.791Z,62496.00
2018-07-07T08:01:06.844Z,63360.00
2018-07-07T08:02:06.856Z,63584.00
2018-07-07T08:03:06.879Z,65728.00
2018-07-07T08:04:06.919Z,70176.00
2018-07-07T08:05:06.945Z,76352.00
2018-07-07T08:06:06.976Z,80160.00
2018-07-07T08:07:07.006Z,81344.00
2018-07-07T08:08:07.044Z,81696.00
2018-07-07T08:09:07.085Z,81664.00
2018-07-07T08:10:07.097Z,84416.00
2018-07-07T08:11:07.132Z,83328.00
2018-07-07T08:12:07.153Z,80864.00
2018-07-07T08:13:07.186Z,80448.00
2018-07-07T08:14:07.245Z,77600.00
2018-07-07T08:15:07.251Z,79328.00
2018-07-07T08:16:07.276Z,78016.00
2018-07-07T08:17:07.320Z,76832.00
2018-07-07T08:18:07.341Z,76736.00
2018-07-07T08:19:07.371Z,73856.00
2018-07-07T08:20:07.407Z,82368.00
2018-07-07T08:21:07.437Z,80608.00
2018-07-07T08:22:07.487Z,81856.00
2018-07-07T08:23:07.495Z,77728.00
2018-07-07T08:24:07.526Z,72800.00
2018-07-07T08:25:07.554Z,74400.00
2018-07-07T08:26:07.587Z,77120.00
2018-07-07T08:27:07.626Z,81536.00
2018-07-07T08:28:07.647Z,83488.00
2018-07-07T08:29:07.677Z,84224.00
2018-07-07T08:30:07.706Z,85248.00
2018-07-07T08:31:07.735Z,81312.00
2018-07-07T08:32:07.758Z,82368.00
2018-07-07T08:33:07.797Z,83808.00
2018-07-07T08:34:07.839Z,83776.00
2018-07-07T08:35:07.854Z,84992.00
2018-07-07T08:36:07.890Z,72800.00
2018-07-07T08:37:07.922Z,36480.00
2018-07-07T08:38:07.934Z,13692.00
2018-07-07T08:39:07.972Z,12288.00
2018-07-07T08:40:07.988Z,11764.00
2018-07-07T08:41:08.013Z,11752.00
2018-07-07T08:42:08.092Z,11940.00
2018-07-07T08:43:08.072Z,12136.00
2018-07-07T08:44:08.107Z,12528.00
2018-07-07T08:45:08.127Z,12868.00
2018-07-07T08:46:08.153Z,13424.00
2018-07-07T08:47:08.178Z,12928.00
2018-07-07T08:48:08.205Z,13204.00
2018-07-07T08:49:08.238Z,13164.00
2018-07-07T08:50:08.256Z,13224.00
2018-07-07T08:51:08.282Z,13464.00
2018-07-07T08:52:08.318Z,13660.00
2018-07-07T08:53:08.336Z,13872.00
2018-07-07T08:54:08.368Z,13764.00
2018-07-07T08:55:08.389Z,13148.00
2018-07-07T08:56:08.411Z,12624.00
2018-07-07T08:57:08.439Z,12164.00
2018-07-07T08:58:08.466Z,11848.00
2018-07-07T08:59:08.490Z,11664.00
2018-07-07T09:00:08.519Z,11524.00
2018-07-07T09:01:08.538Z,11440.00
2018-07-07T09:02:08.624Z,11508.00
2018-07-07T09:03:08.584Z,11304.00
2018-07-07T09:04:08.621Z,11152.00
2018-07-07T09:05:08.636Z,11104.00
2018-07-07T09:06:08.663Z,11248.00
2018-07-07T09:07:08.692Z,11244.00
2018-07-07T09:08:08.716Z,10888.00
2018-07-07T09:09:08.734Z,10532.00
2018-07-07T09:10:08.766Z,10384.00
2018-07-07T09:11:08.783Z,10432.00
2018-07-07T09:12:08.812Z,10656.00
2018-07-07T09:13:08.838Z,10828.00
2018-07-07T09:14:08.918Z,10604.00
2018-07-07T09:15:08.884Z,10548.00
2018-07-07T09:16:08.914Z,10404.00
2018-07-07T09:17:08.930Z,10440.00
2018-07-07T09:18:08.961Z,10384.00
2018-07-07T09:19:08.979Z,10604.00
2018-07-07T09:20:09.035Z,10632.00
2018-07-07T09:21:09.047Z,10364.00
2018-07-07T09:22:09.080Z,10092.00
2018-07-07T09:23:09.075Z,9876.00
2018-07-07T09:24:09.099Z,9636.00
2018-07-07T09:25:09.132Z,9416.00
2018-07-07T09:26:09.194Z,9276.00
2018-07-07T09:27:09.176Z,9212.00
2018-07-07T09:28:09.199Z,8976.00
2018-07-07T09:29:09.224Z,8876.00
2018-07-07T09:30:09.262Z,8824.00
2018-07-07T09:31:09.273Z,8832.00
2018-07-07T09:32:09.295Z,8900.00
2018-07-07T09:33:09.319Z,9108.00
2018-07-07T09:34:09.353Z,9584.00
2018-07-07T09:35:09.374Z,9968.00
2018-07-07T09:36:09.447Z,10476.00
2018-07-07T09:37:09.418Z,10740.00
2018-07-07T09:38:09.458Z,10984.00
2018-07-07T09:39:09.467Z,10884.00
2018-07-07T09:40:09.492Z,10568.00
2018-07-07T09:41:09.513Z,10060.00
2018-07-07T09:42:09.541Z,9088.00
2018-07-07T09:43:09.565Z,8756.00
2018-07-07T09:44:09.663Z,8596.00
2018-07-07T09:45:09.609Z,8524.00
2018-07-07T09:46:09.644Z,8608.00
2018-07-07T09:47:09.661Z,8704.00
2018-07-07T09:48:09.688Z,8848.00
2018-07-07T09:49:09.712Z,9268.00
2018-07-07T09:50:09.737Z,9880.00
2018-07-07T09:51:09.756Z,10120.00
2018-07-07T09:52:09.785Z,9988.00
2018-07-07T09:53:09.804Z,9788.00
2018-07-07T09:54:09.835Z,9628.00
2018-07-07T09:55:09.860Z,9300.00
2018-07-07T09:56:09.980Z,8728.00
2018-07-07T09:57:09.906Z,8332.00
2018-07-07T09:58:09.928Z,8240.00
2018-07-07T09:59:09.952Z,8244.00
2018-07-07T10:00:09.974Z,8148.00
2018-07-07T10:01:09.998Z,8048.00
2018-07-07T10:02:10.026Z,7980.00
2018-07-07T10:03:10.049Z,8020.00
2018-07-07T10:04:10.070Z,8308.00
2018-07-07T10:05:10.095Z,8772.00
2018-07-07T10:06:10.117Z,8672.00
2018-07-07T10:07:10.143Z,8456.00
2018-07-07T10:08:10.165Z,8188.00
2018-07-07T10:09:10.189Z,7432.00
2018-07-07T10:10:10.216Z,7528.00
2018-07-07T10:11:10.241Z,7812.00
2018-07-07T10:12:10.263Z,7776.00
2018-07-07T10:13:10.288Z,7704.00
2018-07-07T10:14:10.311Z,7644.00
2018-07-07T10:15:10.332Z,7488.00
2018-07-07T10:16:10.363Z,7700.00
2018-07-07T10:17:10.387Z,7788.00
2018-07-07T10:18:10.409Z,7840.00
2018-07-07T10:19:10.427Z,7904.00
2018-07-07T10:20:10.456Z,7944.00
2018-07-07T10:21:10.476Z,7936.00
2018-07-07T10:22:10.504Z,7524.00
2018-07-07T10:23:10.524Z,7976.00
2018-07-07T10:24:10.548Z,8068.00
2018-07-07T10:25:10.577Z,8324.00
2018-07-07T10:26:10.610Z,8340.00
2018-07-07T10:27:10.620Z,8028.00
2018-07-07T10:28:10.642Z,8068.00
2018-07-07T10:29:10.667Z,7944.00
2018-07-07T10:30:10.692Z,7788.00
2018-07-07T10:31:10.715Z,7964.00
2018-07-07T10:32:10.743Z,8044.00
2018-07-07T10:33:10.763Z,7928.00
2018-07-07T10:34:10.791Z,7764.00
2018-07-07T10:35:10.823Z,7796.00
2018-07-07T10:36:10.841Z,7864.00
2018-07-07T10:37:10.862Z,7868.00
2018-07-07T10:38:10.912Z,7844.00
2018-07-07T10:39:10.905Z,7664.00
2018-07-07T10:40:10.942Z,7848.00
2018-07-07T10:41:10.957Z,8076.00
2018-07-07T10:42:10.983Z,7712.00
2018-07-07T10:43:11.012Z,7972.00
2018-07-07T10:44:11.045Z,7904.00
2018-07-07T10:45:11.068Z,7936.00
2018-07-07T10:46:11.161Z,6816.00
2018-07-07T10:47:11.106Z,7512.00
2018-07-07T10:48:11.130Z,7828.00
2018-07-07T10:49:11.174Z,7964.00
2018-07-07T10:50:11.193Z,7872.00
2018-07-07T10:51:11.206Z,7640.00
2018-07-07T10:52:11.232Z,7464.00
2018-07-07T10:53:11.262Z,7380.00
2018-07-07T10:54:11.269Z,7232.00
2018-07-07T10:55:11.309Z,7076.00
2018-07-07T10:56:11.321Z,7004.00
2018-07-07T10:57:11.343Z,6952.00
2018-07-07T10:58:11.374Z,6964.00
2018-07-07T10:59:11.394Z,6924.00
2018-07-07T11:00:11.421Z,6884.00
2018-07-07T11:01:11.439Z,6988.00
2018-07-07T11:02:11.467Z,7008.00
2018-07-07T11:03:11.507Z,6912.00
2018-07-07T11:04:11.528Z,6800.00
2018-07-07T11:05:11.533Z,6756.00
2018-07-07T11:06:11.557Z,6692.00
2018-07-07T11:07:11.581Z,6608.00
2018-07-07T11:08:11.604Z,6652.00
2018-07-07T11:09:11.651Z,6792.00
2018-07-07T11:10:11.661Z,6784.00
2018-07-07T11:11:11.679Z,6668.00
2018-07-07T11:12:11.779Z,6612.00
2018-07-07T11:13:11.729Z,6532.00
2018-07-07T11:14:11.752Z,6512.00
2018-07-07T11:15:11.772Z,6432.00
2018-07-07T11:16:11.804Z,6388.00
2018-07-07T11:17:11.832Z,6416.00
2018-07-07T11:18:11.845Z,6400.00
2018-07-07T11:19:11.867Z,6428.00
2018-07-07T11:20:11.896Z,6528.00
2018-07-07T11:21:11.938Z,6524.00
2018-07-07T11:22:11.962Z,6488.00
2018-07-07T11:23:11.965Z,6392.00
2018-07-07T11:24:11.991Z,6132.00
2018-07-07T11:25:12.010Z,6344.00
2018-07-07T11:26:12.040Z,6316.00
2018-07-07T11:27:12.058Z,6276.00
2018-07-07T11:28:12.090Z,6304.00
2018-07-07T11:29:12.112Z,6300.00
2018-07-07T11:30:12.131Z,6260.00
2018-07-07T11:31:12.156Z,6220.00
2018-07-07T11:32:12.183Z,6236.00
2018-07-07T11:33:12.201Z,6292.00
2018-07-07T11:34:12.233Z,6408.00
2018-07-07T11:35:12.249Z,6440.00
2018-07-07T11:36:12.326Z,6404.00
2018-07-07T11:37:12.310Z,6412.00
2018-07-07T11:38:12.328Z,6396.00
2018-07-07T11:39:12.351Z,6288.00
2018-07-07T11:40:12.378Z,6228.00
2018-07-07T11:41:12.396Z,6204.00
2018-07-07T11:42:12.439Z,6164.00
2018-07-07T11:43:12.440Z,6128.00
2018-07-07T11:44:12.472Z,6112.00
2018-07-07T11:45:12.493Z,6104.00
2018-07-07T11:46:12.521Z,6088.00
2018-07-07T11:47:12.543Z,6080.00
2018-07-07T11:48:12.564Z,6072.00
2018-07-07T11:49:12.587Z,6064.00
2018-07-07T11:50:12.681Z,6044.00
2018-07-07T11:51:12.651Z,6056.00
2018-07-07T11:52:12.668Z,6032.00
2018-07-07T11:53:12.685Z,6044.00
2018-07-07T11:54:12.713Z,6040.00
2018-07-07T11:55:12.736Z,6032.00
2018-07-07T11:56:12.764Z,6028.00
2018-07-07T11:57:12.839Z,6024.00
2018-07-07T11:58:12.805Z,6040.00
2018-07-07T11:59:12.831Z,6060.00
2018-07-07T12:00:12.868Z,6096.00
2018-07-07T12:01:12.888Z,6084.00
2018-07-07T12:02:12.902Z,6072.00
2018-07-07T12:03:12.928Z,6052.00
2018-07-07T12:04:12.961Z,6048.00
2018-07-07T12:05:12.976Z,6048.00
2018-07-07T12:06:13.024Z,6072.00
2018-07-07T12:07:13.018Z,6072.00
2018-07-07T12:08:14.254Z,6104.00
2018-07-07T12:09:13.096Z,6116.00
2018-07-07T12:10:13.115Z,6108.00
2018-07-07T12:11:13.173Z,6112.00
2018-07-07T12:12:13.144Z,6116.00
2018-07-07T12:13:13.241Z,6092.00
2018-07-07T12:14:13.190Z,6080.00